sensor_id;sensor_type;location;lat;lon;timestamp;temperature;humidity
15131;DHT22;7666;50.920;4.628;2023-04-23T00:02:36;9.70;99.90
15131;DHT22;7666;50.920;4.628;2023-04-23T00:05:26;9.70;99.90
15131;DHT22;7666;50.920;4.628;2023-04-23T00:08:14;9.70;99.90
15131;DHT22;7666;50.920;4.628;2023-04-23T00:11:03;9.70;99.90
15131;DHT22;7666;50.920;4.628;2023-04-23T00:13:50;9.70;99.90
15131;DHT22;7666;50.920;4.628;2023-04-23T00:16:38;9.70;99.90
15131;DHT22;7666;50.920;4.628;2023-04-23T00:19:24;9.80;99.90
15131;DHT22;7666;50.920;4.628;2023-04-23T00:22:10;9.80;99.90
15131;DHT22;7666;50.920;4.628;2023-04-23T00:24:56;9.80;99.90
15131;DHT22;7666;50.920;4.628;2023-04-23T00:27:42;9.80;99.90
15131;DHT22;7666;50.920;4.628;2023-04-23T00:30:28;9.80;99.90
15131;DHT22;7666;50.920;4.628;2023-04-23T00:33:14;9.90;99.90
15131;DHT22;7666;50.920;4.628;2023-04-23T00:36:00;9.90;99.90
15131;DHT22;7666;50.920;4.628;2023-04-23T00:38:46;9.90;99.90
15131;DHT22;7666;50.920;4.628;2023-04-23T00:41:33;9.90;99.90
15131;DHT22;7666;50.920;4.628;2023-04-23T00:44:19;10.00;99.90
15131;DHT22;7666;50.920;4.628;2023-04-23T00:47:05;10.00;99.90
15131;DHT22;7666;50.920;4.628;2023-04-23T00:49:52;10.10;99.90
15131;DHT22;7666;50.920;4.628;2023-04-23T00:52:40;10.10;99.90
15131;DHT22;7666;50.920;4.628;2023-04-23T00:55:27;10.10;99.90
15131;DHT22;7666;50.920;4.628;2023-04-23T00:58:13;10.10;99.90
15131;DHT22;7666;50.920;4.628;2023-04-23T01:00:59;10.10;99.90
15131;DHT22;7666;50.920;4.628;2023-04-23T01:03:48;10.10;99.90
15131;DHT22;7666;50.920;4.628;2023-04-23T01:06:34;10.20;99.90
15131;DHT22;7666;50.920;4.628;2023-04-23T01:09:21;10.20;99.90
15131;DHT22;7666;50.920;4.628;2023-04-23T01:12:08;10.20;99.90
15131;DHT22;7666;50.920;4.628;2023-04-23T01:14:54;10.20;99.90
15131;DHT22;7666;50.920;4.628;2023-04-23T01:17:40;10.20;99.90
15131;DHT22;7666;50.920;4.628;2023-04-23T01:20:27;10.20;99.90
15131;DHT22;7666;50.920;4.628;2023-04-23T01:23:14;10.20;99.90
15131;DHT22;7666;50.920;4.628;2023-04-23T01:26:00;10.20;99.90
15131;DHT22;7666;50.920;4.628;2023-04-23T01:28:47;10.20;99.90
15131;DHT22;7666;50.920;4.628;2023-04-23T01:31:33;10.20;99.90
15131;DHT22;7666;50.920;4.628;2023-04-23T01:34:19;10.20;99.90
15131;DHT22;7666;50.920;4.628;2023-04-23T01:37:06;10.10;99.90
15131;DHT22;7666;50.920;4.628;2023-04-23T01:39:52;10.10;99.90
15131;DHT22;7666;50.920;4.628;2023-04-23T01:42:39;10.10;99.90
15131;DHT22;7666;50.920;4.628;2023-04-23T01:45:25;10.00;99.90
15131;DHT22;7666;50.920;4.628;2023-04-23T01:48:11;10.00;99.90
15131;DHT22;7666;50.920;4.628;2023-04-23T01:50:58;10.00;99.90
15131;DHT22;7666;50.920;4.628;2023-04-23T01:53:44;10.10;99.90
15131;DHT22;7666;50.920;4.628;2023-04-23T01:56:30;10.10;99.90
15131;DHT22;7666;50.920;4.628;2023-04-23T01:59:18;10.10;99.90
15131;DHT22;7666;50.920;4.628;2023-04-23T02:02:04;10.10;99.90
15131;DHT22;7666;50.920;4.628;2023-04-23T02:04:50;10.20;99.90
15131;DHT22;7666;50.920;4.628;2023-04-23T02:07:38;10.20;99.90
15131;DHT22;7666;50.920;4.628;2023-04-23T02:10:24;10.30;99.90
15131;DHT22;7666;50.920;4.628;2023-04-23T02:13:10;10.30;99.90
15131;DHT22;7666;50.920;4.628;2023-04-23T02:15:56;10.30;99.90
15131;DHT22;7666;50.920;4.628;2023-04-23T02:18:42;10.30;99.90
15131;DHT22;7666;50.920;4.628;2023-04-23T02:21:28;10.30;99.90
15131;DHT22;7666;50.920;4.628;2023-04-23T02:24:14;10.20;99.90
15131;DHT22;7666;50.920;4.628;2023-04-23T02:27:00;10.30;99.90
15131;DHT22;7666;50.920;4.628;2023-04-23T02:29:47;10.20;99.90
15131;DHT22;7666;50.920;4.628;2023-04-23T02:32:34;10.30;99.90
15131;DHT22;7666;50.920;4.628;2023-04-23T02:35:21;10.20;99.90
15131;DHT22;7666;50.920;4.628;2023-04-23T02:38:08;10.20;99.90
15131;DHT22;7666;50.920;4.628;2023-04-23T02:40:54;10.20;99.90
15131;DHT22;7666;50.920;4.628;2023-04-23T02:43:40;10.20;99.90
15131;DHT22;7666;50.920;4.628;2023-04-23T02:46:27;10.10;99.90
15131;DHT22;7666;50.920;4.628;2023-04-23T02:49:13;10.10;99.90
15131;DHT22;7666;50.920;4.628;2023-04-23T02:51:59;10.10;99.90
15131;DHT22;7666;50.920;4.628;2023-04-23T02:54:45;10.00;99.90
15131;DHT22;7666;50.920;4.628;2023-04-23T02:57:31;10.00;99.90
15131;DHT22;7666;50.920;4.628;2023-04-23T03:00:17;9.90;99.90
15131;DHT22;7666;50.920;4.628;2023-04-23T03:03:03;9.90;99.90
15131;DHT22;7666;50.920;4.628;2023-04-23T03:05:49;9.90;99.90
15131;DHT22;7666;50.920;4.628;2023-04-23T03:08:35;9.80;99.90
15131;DHT22;7666;50.920;4.628;2023-04-23T03:11:21;9.80;99.90
15131;DHT22;7666;50.920;4.628;2023-04-23T03:14:07;9.70;99.90
15131;DHT22;7666;50.920;4.628;2023-04-23T03:16:53;9.60;99.90
15131;DHT22;7666;50.920;4.628;2023-04-23T03:19:39;9.60;99.90
15131;DHT22;7666;50.920;4.628;2023-04-23T03:22:25;9.60;99.90
15131;DHT22;7666;50.920;4.628;2023-04-23T03:25:11;9.50;99.90
15131;DHT22;7666;50.920;4.628;2023-04-23T03:27:57;9.50;99.90
15131;DHT22;7666;50.920;4.628;2023-04-23T03:30:43;9.60;99.90
15131;DHT22;7666;50.920;4.628;2023-04-23T03:33:29;9.50;99.90
15131;DHT22;7666;50.920;4.628;2023-04-23T03:36:15;9.50;99.90
15131;DHT22;7666;50.920;4.628;2023-04-23T03:39:01;9.60;99.90
15131;DHT22;7666;50.920;4.628;2023-04-23T03:41:47;9.50;99.90
15131;DHT22;7666;50.920;4.628;2023-04-23T03:44:34;9.50;99.90
15131;DHT22;7666;50.920;4.628;2023-04-23T03:47:20;9.50;99.90
15131;DHT22;7666;50.920;4.628;2023-04-23T03:50:06;9.50;99.90
15131;DHT22;7666;50.920;4.628;2023-04-23T03:52:53;9.50;99.90
15131;DHT22;7666;50.920;4.628;2023-04-23T03:55:39;9.50;99.90
15131;DHT22;7666;50.920;4.628;2023-04-23T03:58:25;9.50;99.90
15131;DHT22;7666;50.920;4.628;2023-04-23T04:01:11;9.50;99.90
15131;DHT22;7666;50.920;4.628;2023-04-23T04:03:58;9.50;99.90
15131;DHT22;7666;50.920;4.628;2023-04-23T04:06:43;9.50;99.90
15131;DHT22;7666;50.920;4.628;2023-04-23T04:09:30;9.60;99.90
15131;DHT22;7666;50.920;4.628;2023-04-23T04:12:16;9.60;99.90
15131;DHT22;7666;50.920;4.628;2023-04-23T04:15:03;9.60;99.90
15131;DHT22;7666;50.920;4.628;2023-04-23T04:17:49;9.60;99.90
15131;DHT22;7666;50.920;4.628;2023-04-23T04:20:35;9.50;99.90
15131;DHT22;7666;50.920;4.628;2023-04-23T04:23:21;9.60;99.90
15131;DHT22;7666;50.920;4.628;2023-04-23T04:26:07;9.60;99.90
15131;DHT22;7666;50.920;4.628;2023-04-23T04:28:53;9.50;99.90
15131;DHT22;7666;50.920;4.628;2023-04-23T04:31:39;9.50;99.90
15131;DHT22;7666;50.920;4.628;2023-04-23T04:34:25;9.60;99.90
15131;DHT22;7666;50.920;4.628;2023-04-23T04:37:11;9.60;99.90
15131;DHT22;7666;50.920;4.628;2023-04-23T04:39:57;9.50;99.90
15131;DHT22;7666;50.920;4.628;2023-04-23T04:42:43;9.60;99.90
15131;DHT22;7666;50.920;4.628;2023-04-23T04:45:31;9.60;99.90
15131;DHT22;7666;50.920;4.628;2023-04-23T04:48:17;9.60;99.90
15131;DHT22;7666;50.920;4.628;2023-04-23T04:51:03;9.60;99.90
15131;DHT22;7666;50.920;4.628;2023-04-23T04:53:49;9.70;99.90
15131;DHT22;7666;50.920;4.628;2023-04-23T04:56:35;9.70;99.90
15131;DHT22;7666;50.920;4.628;2023-04-23T04:59:21;9.70;99.90
15131;DHT22;7666;50.920;4.628;2023-04-23T05:02:07;9.80;99.90
15131;DHT22;7666;50.920;4.628;2023-04-23T05:04:53;10.10;99.90
15131;DHT22;7666;50.920;4.628;2023-04-23T05:07:39;10.50;99.90
15131;DHT22;7666;50.920;4.628;2023-04-23T05:10:25;11.00;99.90
15131;DHT22;7666;50.920;4.628;2023-04-23T05:13:11;11.50;99.90
15131;DHT22;7666;50.920;4.628;2023-04-23T05:15:57;12.00;99.90
15131;DHT22;7666;50.920;4.628;2023-04-23T05:18:43;12.40;99.90
15131;DHT22;7666;50.920;4.628;2023-04-23T05:21:29;13.00;99.90
15131;DHT22;7666;50.920;4.628;2023-04-23T05:24:16;13.50;99.90
15131;DHT22;7666;50.920;4.628;2023-04-23T05:27:02;13.90;99.90
15131;DHT22;7666;50.920;4.628;2023-04-23T05:29:48;14.20;99.90
15131;DHT22;7666;50.920;4.628;2023-04-23T05:32:34;14.60;99.90
15131;DHT22;7666;50.920;4.628;2023-04-23T05:35:21;14.80;99.90
15131;DHT22;7666;50.920;4.628;2023-04-23T05:38:07;15.10;99.90
15131;DHT22;7666;50.920;4.628;2023-04-23T05:40:53;15.70;99.90
15131;DHT22;7666;50.920;4.628;2023-04-23T05:43:39;15.90;99.90
15131;DHT22;7666;50.920;4.628;2023-04-23T05:46:25;16.20;99.90
15131;DHT22;7666;50.920;4.628;2023-04-23T05:49:11;16.60;99.90
15131;DHT22;7666;50.920;4.628;2023-04-23T05:51:57;16.80;99.90
15131;DHT22;7666;50.920;4.628;2023-04-23T05:54:44;17.00;99.90
15131;DHT22;7666;50.920;4.628;2023-04-23T05:57:30;17.30;99.90
15131;DHT22;7666;50.920;4.628;2023-04-23T06:00:16;17.60;99.90
15131;DHT22;7666;50.920;4.628;2023-04-23T06:03:02;17.70;99.90
15131;DHT22;7666;50.920;4.628;2023-04-23T06:05:48;17.70;99.90
15131;DHT22;7666;50.920;4.628;2023-04-23T06:08:34;17.80;99.90
15131;DHT22;7666;50.920;4.628;2023-04-23T06:11:20;18.00;99.90
15131;DHT22;7666;50.920;4.628;2023-04-23T06:14:07;18.50;99.90
15131;DHT22;7666;50.920;4.628;2023-04-23T06:16:53;18.60;99.90
15131;DHT22;7666;50.920;4.628;2023-04-23T06:19:39;18.60;99.90
15131;DHT22;7666;50.920;4.628;2023-04-23T06:22:25;18.60;99.90
15131;DHT22;7666;50.920;4.628;2023-04-23T06:25:11;19.10;99.90
15131;DHT22;7666;50.920;4.628;2023-04-23T06:27:57;19.20;99.90
15131;DHT22;7666;50.920;4.628;2023-04-23T06:30:43;19.60;99.90
15131;DHT22;7666;50.920;4.628;2023-04-23T06:33:29;19.50;99.90
15131;DHT22;7666;50.920;4.628;2023-04-23T06:36:15;19.50;99.90
15131;DHT22;7666;50.920;4.628;2023-04-23T06:39:01;19.80;99.90
15131;DHT22;7666;50.920;4.628;2023-04-23T06:41:47;20.00;99.90
15131;DHT22;7666;50.920;4.628;2023-04-23T06:44:33;20.00;99.90
15131;DHT22;7666;50.920;4.628;2023-04-23T06:47:19;20.20;99.90
15131;DHT22;7666;50.920;4.628;2023-04-23T06:50:06;20.20;99.90
15131;DHT22;7666;50.920;4.628;2023-04-23T06:52:53;20.40;99.90
15131;DHT22;7666;50.920;4.628;2023-04-23T06:55:40;20.20;99.90
15131;DHT22;7666;50.920;4.628;2023-04-23T06:58:26;20.10;99.90
15131;DHT22;7666;50.920;4.628;2023-04-23T07:01:17;20.00;99.90
15131;DHT22;7666;50.920;4.628;2023-04-23T07:04:03;19.70;99.90
15131;DHT22;7666;50.920;4.628;2023-04-23T07:06:49;19.70;99.90
15131;DHT22;7666;50.920;4.628;2023-04-23T07:09:35;19.90;99.90
15131;DHT22;7666;50.920;4.628;2023-04-23T07:12:21;20.20;99.90
15131;DHT22;7666;50.920;4.628;2023-04-23T07:15:08;20.20;99.90
15131;DHT22;7666;50.920;4.628;2023-04-23T07:17:54;20.20;99.90
15131;DHT22;7666;50.920;4.628;2023-04-23T07:20:40;20.20;99.90
15131;DHT22;7666;50.920;4.628;2023-04-23T07:23:26;19.90;99.90
15131;DHT22;7666;50.920;4.628;2023-04-23T07:26:12;19.80;99.90
15131;DHT22;7666;50.920;4.628;2023-04-23T07:28:58;19.40;99.90
15131;DHT22;7666;50.920;4.628;2023-04-23T07:31:44;18.80;99.90
15131;DHT22;7666;50.920;4.628;2023-04-23T07:34:31;18.40;99.90
15131;DHT22;7666;50.920;4.628;2023-04-23T07:37:17;18.40;99.90
15131;DHT22;7666;50.920;4.628;2023-04-23T07:40:03;18.40;99.90
15131;DHT22;7666;50.920;4.628;2023-04-23T07:42:50;18.30;99.90
15131;DHT22;7666;50.920;4.628;2023-04-23T07:45:36;18.20;99.90
15131;DHT22;7666;50.920;4.628;2023-04-23T07:48:22;18.00;99.90
15131;DHT22;7666;50.920;4.628;2023-04-23T07:51:08;18.00;99.90
15131;DHT22;7666;50.920;4.628;2023-04-23T07:53:54;17.90;99.90
15131;DHT22;7666;50.920;4.628;2023-04-23T07:56:41;17.80;99.90
15131;DHT22;7666;50.920;4.628;2023-04-23T07:59:28;17.80;99.90
15131;DHT22;7666;50.920;4.628;2023-04-23T08:02:14;17.90;99.90
15131;DHT22;7666;50.920;4.628;2023-04-23T08:05:00;18.00;99.90
15131;DHT22;7666;50.920;4.628;2023-04-23T08:07:46;17.80;99.90
15131;DHT22;7666;50.920;4.628;2023-04-23T08:10:35;17.60;99.90
15131;DHT22;7666;50.920;4.628;2023-04-23T08:13:21;17.70;99.90
15131;DHT22;7666;50.920;4.628;2023-04-23T08:16:07;17.70;99.90
15131;DHT22;7666;50.920;4.628;2023-04-23T08:18:53;17.90;99.90
15131;DHT22;7666;50.920;4.628;2023-04-23T08:21:39;17.80;99.90
15131;DHT22;7666;50.920;4.628;2023-04-23T08:24:25;17.80;99.90
15131;DHT22;7666;50.920;4.628;2023-04-23T08:27:14;17.60;99.90
15131;DHT22;7666;50.920;4.628;2023-04-23T08:30:00;17.60;99.90
15131;DHT22;7666;50.920;4.628;2023-04-23T08:32:48;17.70;99.90
15131;DHT22;7666;50.920;4.628;2023-04-23T08:35:35;17.60;99.90
15131;DHT22;7666;50.920;4.628;2023-04-23T08:38:21;17.80;99.90
15131;DHT22;7666;50.920;4.628;2023-04-23T08:41:10;17.80;99.90
15131;DHT22;7666;50.920;4.628;2023-04-23T08:44:32;17.90;99.90
15131;DHT22;7666;50.920;4.628;2023-04-23T08:47:17;18.00;99.90
15131;DHT22;7666;50.920;4.628;2023-04-23T08:50:04;17.90;99.90
15131;DHT22;7666;50.920;4.628;2023-04-23T08:52:54;17.60;99.90
15131;DHT22;7666;50.920;4.628;2023-04-23T08:55:40;17.50;99.90
15131;DHT22;7666;50.920;4.628;2023-04-23T08:58:26;17.30;99.90
15131;DHT22;7666;50.920;4.628;2023-04-23T09:01:12;17.10;99.90
15131;DHT22;7666;50.920;4.628;2023-04-23T09:03:59;17.00;99.90
15131;DHT22;7666;50.920;4.628;2023-04-23T09:06:45;17.00;99.90
15131;DHT22;7666;50.920;4.628;2023-04-23T09:09:32;17.20;99.90
15131;DHT22;7666;50.920;4.628;2023-04-23T09:12:20;17.40;99.90
15131;DHT22;7666;50.920;4.628;2023-04-23T09:15:07;17.50;99.90
15131;DHT22;7666;50.920;4.628;2023-04-23T09:17:57;17.50;99.90
15131;DHT22;7666;50.920;4.628;2023-04-23T09:20:44;17.40;99.90
15131;DHT22;7666;50.920;4.628;2023-04-23T09:23:30;17.50;99.90
15131;DHT22;7666;50.920;4.628;2023-04-23T09:26:20;17.70;99.90
15131;DHT22;7666;50.920;4.628;2023-04-23T09:29:13;17.70;99.90
15131;DHT22;7666;50.920;4.628;2023-04-23T09:32:08;17.30;99.90
15131;DHT22;7666;50.920;4.628;2023-04-23T09:34:57;17.50;99.90
15131;DHT22;7666;50.920;4.628;2023-04-23T09:37:45;17.70;99.90
15131;DHT22;7666;50.920;4.628;2023-04-23T09:40:33;17.70;99.90
15131;DHT22;7666;50.920;4.628;2023-04-23T09:43:19;17.60;99.90
15131;DHT22;7666;50.920;4.628;2023-04-23T09:46:05;17.60;99.90
15131;DHT22;7666;50.920;4.628;2023-04-23T09:48:51;17.80;99.90
15131;DHT22;7666;50.920;4.628;2023-04-23T09:51:42;17.90;99.90
15131;DHT22;7666;50.920;4.628;2023-04-23T09:54:29;17.90;99.90
15131;DHT22;7666;50.920;4.628;2023-04-23T09:57:15;17.90;99.90
15131;DHT22;7666;50.920;4.628;2023-04-23T10:00:15;17.90;99.90
15131;DHT22;7666;50.920;4.628;2023-04-23T10:03:01;17.80;99.90
15131;DHT22;7666;50.920;4.628;2023-04-23T10:05:47;17.70;99.90
15131;DHT22;7666;50.920;4.628;2023-04-23T10:08:34;17.60;99.90
15131;DHT22;7666;50.920;4.628;2023-04-23T10:11:22;17.70;99.90
15131;DHT22;7666;50.920;4.628;2023-04-23T10:14:09;17.90;99.90
15131;DHT22;7666;50.920;4.628;2023-04-23T10:19:43;18.10;99.90
15131;DHT22;7666;50.920;4.628;2023-04-23T10:22:30;18.10;99.90
15131;DHT22;7666;50.920;4.628;2023-04-23T10:25:18;18.10;99.90
15131;DHT22;7666;50.920;4.628;2023-04-23T10:28:05;18.00;99.90
15131;DHT22;7666;50.920;4.628;2023-04-23T10:30:53;17.90;99.90
15131;DHT22;7666;50.920;4.628;2023-04-23T10:33:42;17.80;99.90
15131;DHT22;7666;50.920;4.628;2023-04-23T10:36:28;17.90;99.90
15131;DHT22;7666;50.920;4.628;2023-04-23T10:39:14;17.70;99.90
15131;DHT22;7666;50.920;4.628;2023-04-23T10:42:01;17.70;99.90
15131;DHT22;7666;50.920;4.628;2023-04-23T10:44:48;17.90;99.90
15131;DHT22;7666;50.920;4.628;2023-04-23T10:47:34;18.20;99.90
15131;DHT22;7666;50.920;4.628;2023-04-23T10:50:29;18.10;99.90
15131;DHT22;7666;50.920;4.628;2023-04-23T10:53:19;17.90;99.90
15131;DHT22;7666;50.920;4.628;2023-04-23T10:56:08;17.90;99.90
15131;DHT22;7666;50.920;4.628;2023-04-23T10:58:55;18.10;99.90
15131;DHT22;7666;50.920;4.628;2023-04-23T11:01:41;18.10;99.90
15131;DHT22;7666;50.920;4.628;2023-04-23T11:04:30;17.90;99.90
15131;DHT22;7666;50.920;4.628;2023-04-23T11:07:18;17.80;99.90
15131;DHT22;7666;50.920;4.628;2023-04-23T11:10:12;17.70;99.90
15131;DHT22;7666;50.920;4.628;2023-04-23T11:13:19;17.60;99.90
15131;DHT22;7666;50.920;4.628;2023-04-23T11:16:20;17.60;99.90
15131;DHT22;7666;50.920;4.628;2023-04-23T11:19:11;17.70;99.90
15131;DHT22;7666;50.920;4.628;2023-04-23T11:22:02;17.70;99.90
15131;DHT22;7666;50.920;4.628;2023-04-23T11:24:48;17.80;99.90
15131;DHT22;7666;50.920;4.628;2023-04-23T11:27:37;17.90;99.90
15131;DHT22;7666;50.920;4.628;2023-04-23T11:30:28;18.00;99.90
15131;DHT22;7666;50.920;4.628;2023-04-23T11:33:15;18.00;99.90
15131;DHT22;7666;50.920;4.628;2023-04-23T11:36:02;18.00;99.90
15131;DHT22;7666;50.920;4.628;2023-04-23T11:38:48;18.10;99.90
15131;DHT22;7666;50.920;4.628;2023-04-23T11:41:35;18.10;99.90
15131;DHT22;7666;50.920;4.628;2023-04-23T11:44:21;18.20;99.90
15131;DHT22;7666;50.920;4.628;2023-04-23T11:47:10;18.30;99.90
15131;DHT22;7666;50.920;4.628;2023-04-23T11:49:56;18.20;99.90
15131;DHT22;7666;50.920;4.628;2023-04-23T11:52:43;18.00;99.90
15131;DHT22;7666;50.920;4.628;2023-04-23T11:55:29;18.00;99.90
15131;DHT22;7666;50.920;4.628;2023-04-23T11:58:19;18.00;99.90
15131;DHT22;7666;50.920;4.628;2023-04-23T12:01:05;18.10;99.90
15131;DHT22;7666;50.920;4.628;2023-04-23T12:03:52;18.30;99.90
15131;DHT22;7666;50.920;4.628;2023-04-23T12:06:41;18.40;99.90
15131;DHT22;7666;50.920;4.628;2023-04-23T12:09:28;18.20;99.90
15131;DHT22;7666;50.920;4.628;2023-04-23T12:12:14;18.10;99.90
15131;DHT22;7666;50.920;4.628;2023-04-23T12:15:05;17.80;99.90
15131;DHT22;7666;50.920;4.628;2023-04-23T12:18:07;17.60;99.90
15131;DHT22;7666;50.920;4.628;2023-04-23T12:20:54;17.50;99.90
15131;DHT22;7666;50.920;4.628;2023-04-23T12:23:42;17.40;99.90
15131;DHT22;7666;50.920;4.628;2023-04-23T12:26:29;17.10;99.90
15131;DHT22;7666;50.920;4.628;2023-04-23T12:29:17;16.60;99.90
15131;DHT22;7666;50.920;4.628;2023-04-23T12:32:03;16.20;99.90
15131;DHT22;7666;50.920;4.628;2023-04-23T12:34:53;15.80;99.90
15131;DHT22;7666;50.920;4.628;2023-04-23T12:37:40;15.60;99.90
15131;DHT22;7666;50.920;4.628;2023-04-23T12:40:28;15.40;99.90
15131;DHT22;7666;50.920;4.628;2023-04-23T12:43:14;15.30;99.90
15131;DHT22;7666;50.920;4.628;2023-04-23T12:46:00;15.30;99.90
15131;DHT22;7666;50.920;4.628;2023-04-23T12:48:46;15.10;99.90
15131;DHT22;7666;50.920;4.628;2023-04-23T12:51:32;15.00;99.90
15131;DHT22;7666;50.920;4.628;2023-04-23T12:54:18;14.90;99.90
15131;DHT22;7666;50.920;4.628;2023-04-23T12:57:06;14.80;99.90
15131;DHT22;7666;50.920;4.628;2023-04-23T12:59:52;14.80;99.90
15131;DHT22;7666;50.920;4.628;2023-04-23T13:02:39;14.80;99.90
15131;DHT22;7666;50.920;4.628;2023-04-23T13:05:25;14.80;99.90
15131;DHT22;7666;50.920;4.628;2023-04-23T13:08:11;14.80;99.90
15131;DHT22;7666;50.920;4.628;2023-04-23T13:10:57;14.70;99.90
15131;DHT22;7666;50.920;4.628;2023-04-23T13:13:43;14.70;99.90
15131;DHT22;7666;50.920;4.628;2023-04-23T13:16:29;14.70;99.90
15131;DHT22;7666;50.920;4.628;2023-04-23T13:19:15;14.70;99.90
15131;DHT22;7666;50.920;4.628;2023-04-23T13:22:02;14.60;99.90
15131;DHT22;7666;50.920;4.628;2023-04-23T13:24:49;14.60;99.90
15131;DHT22;7666;50.920;4.628;2023-04-23T13:27:35;14.60;99.90
15131;DHT22;7666;50.920;4.628;2023-04-23T13:30:21;14.50;99.90
15131;DHT22;7666;50.920;4.628;2023-04-23T13:33:07;14.40;99.90
15131;DHT22;7666;50.920;4.628;2023-04-23T13:35:53;14.50;99.90
15131;DHT22;7666;50.920;4.628;2023-04-23T13:38:41;14.50;99.90
15131;DHT22;7666;50.920;4.628;2023-04-23T13:41:28;14.40;99.90
15131;DHT22;7666;50.920;4.628;2023-04-23T13:44:14;14.30;99.90
15131;DHT22;7666;50.920;4.628;2023-04-23T13:47:00;14.30;99.90
15131;DHT22;7666;50.920;4.628;2023-04-23T13:49:46;14.30;99.90
15131;DHT22;7666;50.920;4.628;2023-04-23T13:52:33;14.30;99.90
15131;DHT22;7666;50.920;4.628;2023-04-23T13:55:19;14.30;99.90
15131;DHT22;7666;50.920;4.628;2023-04-23T13:58:06;14.20;99.90
15131;DHT22;7666;50.920;4.628;2023-04-23T14:00:52;14.10;99.90
15131;DHT22;7666;50.920;4.628;2023-04-23T14:03:38;14.00;99.90
15131;DHT22;7666;50.920;4.628;2023-04-23T14:06:24;14.10;99.90
15131;DHT22;7666;50.920;4.628;2023-04-23T14:09:10;14.00;99.90
15131;DHT22;7666;50.920;4.628;2023-04-23T14:11:56;14.00;99.90
15131;DHT22;7666;50.920;4.628;2023-04-23T14:14:42;13.90;99.90
15131;DHT22;7666;50.920;4.628;2023-04-23T14:17:28;13.90;99.90
15131;DHT22;7666;50.920;4.628;2023-04-23T14:20:15;13.70;99.90
15131;DHT22;7666;50.920;4.628;2023-04-23T14:23:03;13.80;99.90
15131;DHT22;7666;50.920;4.628;2023-04-23T14:26:03;13.70;99.90
15131;DHT22;7666;50.920;4.628;2023-04-23T14:28:50;13.50;99.90
15131;DHT22;7666;50.920;4.628;2023-04-23T14:31:37;13.50;99.90
15131;DHT22;7666;50.920;4.628;2023-04-23T14:34:23;13.40;99.90
15131;DHT22;7666;50.920;4.628;2023-04-23T14:37:09;13.40;99.90
15131;DHT22;7666;50.920;4.628;2023-04-23T14:39:56;13.40;99.90
15131;DHT22;7666;50.920;4.628;2023-04-23T14:42:41;13.40;99.90
15131;DHT22;7666;50.920;4.628;2023-04-23T14:45:28;13.70;99.90
15131;DHT22;7666;50.920;4.628;2023-04-23T14:48:16;13.90;99.90
15131;DHT22;7666;50.920;4.628;2023-04-23T14:51:02;14.00;99.90
15131;DHT22;7666;50.920;4.628;2023-04-23T14:53:49;14.10;99.90
15131;DHT22;7666;50.920;4.628;2023-04-23T14:56:36;14.10;99.90
15131;DHT22;7666;50.920;4.628;2023-04-23T14:59:22;14.20;99.90
15131;DHT22;7666;50.920;4.628;2023-04-23T15:02:08;14.10;99.90
15131;DHT22;7666;50.920;4.628;2023-04-23T15:04:56;14.10;99.90
15131;DHT22;7666;50.920;4.628;2023-04-23T15:07:42;14.00;99.90
15131;DHT22;7666;50.920;4.628;2023-04-23T15:10:28;14.00;99.90
15131;DHT22;7666;50.920;4.628;2023-04-23T15:16:02;14.20;99.90
15131;DHT22;7666;50.920;4.628;2023-04-23T15:18:52;14.30;99.90
15131;DHT22;7666;50.920;4.628;2023-04-23T15:21:38;14.30;99.90
15131;DHT22;7666;50.920;4.628;2023-04-23T15:24:24;14.30;99.90
15131;DHT22;7666;50.920;4.628;2023-04-23T15:27:10;14.40;99.90
15131;DHT22;7666;50.920;4.628;2023-04-23T15:29:59;14.40;99.90
15131;DHT22;7666;50.920;4.628;2023-04-23T15:32:45;14.40;99.90
15131;DHT22;7666;50.920;4.628;2023-04-23T15:35:31;14.40;99.90
15131;DHT22;7666;50.920;4.628;2023-04-23T15:38:17;14.40;99.90
15131;DHT22;7666;50.920;4.628;2023-04-23T15:41:04;14.40;99.90
15131;DHT22;7666;50.920;4.628;2023-04-23T15:43:50;14.50;99.90
15131;DHT22;7666;50.920;4.628;2023-04-23T15:46:38;14.50;99.90
15131;DHT22;7666;50.920;4.628;2023-04-23T15:49:24;14.40;99.90
15131;DHT22;7666;50.920;4.628;2023-04-23T15:52:11;14.40;99.90
15131;DHT22;7666;50.920;4.628;2023-04-23T15:54:57;14.40;99.90
15131;DHT22;7666;50.920;4.628;2023-04-23T15:57:44;14.40;99.90
15131;DHT22;7666;50.920;4.628;2023-04-23T16:00:30;14.30;99.90
15131;DHT22;7666;50.920;4.628;2023-04-23T16:03:18;14.30;99.90
15131;DHT22;7666;50.920;4.628;2023-04-23T16:06:04;14.20;99.90
15131;DHT22;7666;50.920;4.628;2023-04-23T16:08:50;14.10;99.90
15131;DHT22;7666;50.920;4.628;2023-04-23T16:11:37;14.20;99.90
15131;DHT22;7666;50.920;4.628;2023-04-23T16:14:23;14.10;99.90
15131;DHT22;7666;50.920;4.628;2023-04-23T16:17:09;14.10;99.90
15131;DHT22;7666;50.920;4.628;2023-04-23T16:19:55;14.10;99.90
15131;DHT22;7666;50.920;4.628;2023-04-23T16:22:41;14.10;99.90
15131;DHT22;7666;50.920;4.628;2023-04-23T16:25:27;14.10;99.90
15131;DHT22;7666;50.920;4.628;2023-04-23T16:28:13;14.10;99.90
15131;DHT22;7666;50.920;4.628;2023-04-23T16:30:59;14.10;99.90
15131;DHT22;7666;50.920;4.628;2023-04-23T16:33:45;14.20;99.90
15131;DHT22;7666;50.920;4.628;2023-04-23T16:36:31;14.20;99.90
15131;DHT22;7666;50.920;4.628;2023-04-23T16:39:17;14.20;99.90
15131;DHT22;7666;50.920;4.628;2023-04-23T16:42:03;14.30;99.90
15131;DHT22;7666;50.920;4.628;2023-04-23T16:44:49;14.30;99.90
15131;DHT22;7666;50.920;4.628;2023-04-23T16:47:35;14.30;99.90
15131;DHT22;7666;50.920;4.628;2023-04-23T16:50:22;14.30;99.90
15131;DHT22;7666;50.920;4.628;2023-04-23T16:53:08;14.30;99.90
15131;DHT22;7666;50.920;4.628;2023-04-23T16:55:54;14.30;99.90
15131;DHT22;7666;50.920;4.628;2023-04-23T16:58:40;14.30;99.90
15131;DHT22;7666;50.920;4.628;2023-04-23T17:01:26;14.20;99.90
15131;DHT22;7666;50.920;4.628;2023-04-23T17:04:12;14.10;99.90
15131;DHT22;7666;50.920;4.628;2023-04-23T17:06:58;13.80;99.90
15131;DHT22;7666;50.920;4.628;2023-04-23T17:09:44;13.50;99.90
15131;DHT22;7666;50.920;4.628;2023-04-23T17:12:30;13.30;99.90
15131;DHT22;7666;50.920;4.628;2023-04-23T17:15:16;13.30;99.90
15131;DHT22;7666;50.920;4.628;2023-04-23T17:18:02;13.10;99.90
15131;DHT22;7666;50.920;4.628;2023-04-23T17:20:48;13.00;99.90
15131;DHT22;7666;50.920;4.628;2023-04-23T17:23:35;13.00;99.90
15131;DHT22;7666;50.920;4.628;2023-04-23T17:26:21;12.90;99.90
15131;DHT22;7666;50.920;4.628;2023-04-23T17:29:07;12.80;99.90
15131;DHT22;7666;50.920;4.628;2023-04-23T17:31:53;12.60;99.90
15131;DHT22;7666;50.920;4.628;2023-04-23T17:34:39;12.40;99.90
15131;DHT22;7666;50.920;4.628;2023-04-23T17:37:25;12.30;99.90
15131;DHT22;7666;50.920;4.628;2023-04-23T17:40:11;12.10;99.90
15131;DHT22;7666;50.920;4.628;2023-04-23T17:42:57;12.00;99.90
15131;DHT22;7666;50.920;4.628;2023-04-23T17:45:43;11.90;99.90
15131;DHT22;7666;50.920;4.628;2023-04-23T17:48:30;11.80;99.90
15131;DHT22;7666;50.920;4.628;2023-04-23T17:51:17;11.70;99.90
15131;DHT22;7666;50.920;4.628;2023-04-23T17:54:03;11.70;99.90
15131;DHT22;7666;50.920;4.628;2023-04-23T17:56:49;11.60;99.90
15131;DHT22;7666;50.920;4.628;2023-04-23T17:59:35;11.60;99.90